sensor_id;sensor_type;location;lat;lon;timestamp;pressure;altitude;pressure_sealevel;temperature;humidity
75290;BME280;63883;48.996;20.804;2023-06-24T00:01:28;96751.16;;;18.06;100.00
75290;BME280;63883;48.996;20.804;2023-06-24T00:03:56;96758.22;;;18.03;100.00
75290;BME280;63883;48.996;20.804;2023-06-24T00:06:22;96752.47;;;17.98;100.00
75290;BME280;63883;48.996;20.804;2023-06-24T00:08:52;96764.13;;;17.89;100.00
75290;BME280;63883;48.996;20.804;2023-06-24T00:11:18;96774.78;;;17.83;100.00
75290;BME280;63883;48.996;20.804;2023-06-24T00:13:44;96791.06;;;17.68;100.00
75290;BME280;63883;48.996;20.804;2023-06-24T00:16:10;96776.84;;;17.59;100.00
75290;BME280;63883;48.996;20.804;2023-06-24T00:18:37;96784.69;;;17.58;100.00
75290;BME280;63883;48.996;20.804;2023-06-24T00:21:03;96793.34;;;17.56;100.00
75290;BME280;63883;48.996;20.804;2023-06-24T00:23:30;96805.47;;;17.54;100.00
75290;BME280;63883;48.996;20.804;2023-06-24T00:26:00;96813.47;;;17.50;100.00
75290;BME280;63883;48.996;20.804;2023-06-24T00:28:25;96819.47;;;17.50;100.00
75290;BME280;63883;48.996;20.804;2023-06-24T00:30:52;96819.66;;;17.46;100.00
75290;BME280;63883;48.996;20.804;2023-06-24T00:33:18;96823.03;;;17.48;100.00
75290;BME280;63883;48.996;20.804;2023-06-24T00:35:45;96819.53;;;17.49;100.00
75290;BME280;63883;48.996;20.804;2023-06-24T00:38:11;96811.03;;;17.47;100.00
75290;BME280;63883;48.996;20.804;2023-06-24T00:40:38;96799.94;;;17.45;100.00
75290;BME280;63883;48.996;20.804;2023-06-24T00:43:05;96795.56;;;17.47;100.00
75290;BME280;63883;48.996;20.804;2023-06-24T00:45:31;96796.53;;;17.44;100.00
75290;BME280;63883;48.996;20.804;2023-06-24T00:47:58;96793.13;;;17.44;100.00
75290;BME280;63883;48.996;20.804;2023-06-24T00:50:24;96790.16;;;17.51;100.00
75290;BME280;63883;48.996;20.804;2023-06-24T00:52:49;96794.72;;;17.46;100.00
75290;BME280;63883;48.996;20.804;2023-06-24T00:55:16;96792.38;;;17.42;100.00
75290;BME280;63883;48.996;20.804;2023-06-24T00:57:45;96788.13;;;17.41;100.00
75290;BME280;63883;48.996;20.804;2023-06-24T01:00:19;96774.34;;;17.42;100.00
75290;BME280;63883;48.996;20.804;2023-06-24T01:02:48;96780.00;;;17.48;100.00
75290;BME280;63883;48.996;20.804;2023-06-24T01:05:15;96770.53;;;17.49;100.00
75290;BME280;63883;48.996;20.804;2023-06-24T01:07:42;96766.50;;;17.43;100.00
75290;BME280;63883;48.996;20.804;2023-06-24T01:10:09;96764.91;;;17.41;100.00
75290;BME280;63883;48.996;20.804;2023-06-24T01:12:39;96762.94;;;17.46;100.00
75290;BME280;63883;48.996;20.804;2023-06-24T01:15:07;96756.78;;;17.48;100.00
75290;BME280;63883;48.996;20.804;2023-06-24T01:17:43;96750.22;;;17.43;100.00
75290;BME280;63883;48.996;20.804;2023-06-24T01:36:46;96702.59;;;17.33;100.00
75290;BME280;63883;48.996;20.804;2023-06-24T01:39:16;96690.69;;;17.30;100.00
75290;BME280;63883;48.996;20.804;2023-06-24T01:42:00;96681.06;;;17.34;100.00
75290;BME280;63883;48.996;20.804;2023-06-24T01:44:28;96669.72;;;17.36;100.00
75290;BME280;63883;48.996;20.804;2023-06-24T01:46:57;96665.59;;;17.34;100.00
75290;BME280;63883;48.996;20.804;2023-06-24T01:49:23;96663.16;;;17.31;100.00
75290;BME280;63883;48.996;20.804;2023-06-24T01:51:56;96658.84;;;17.31;100.00
75290;BME280;63883;48.996;20.804;2023-06-24T01:54:23;96652.69;;;17.34;100.00
75290;BME280;63883;48.996;20.804;2023-06-24T01:56:50;96651.28;;;17.44;100.00
75290;BME280;63883;48.996;20.804;2023-06-24T01:59:18;96644.22;;;17.47;100.00
75290;BME280;63883;48.996;20.804;2023-06-24T02:01:46;96643.53;;;17.44;100.00
75290;BME280;63883;48.996;20.804;2023-06-24T02:04:12;96640.22;;;17.42;100.00
75290;BME280;63883;48.996;20.804;2023-06-24T02:06:40;96648.03;;;17.40;100.00
75290;BME280;63883;48.996;20.804;2023-06-24T02:09:06;96650.53;;;17.42;100.00
75290;BME280;63883;48.996;20.804;2023-06-24T02:11:34;96654.03;;;17.41;100.00
75290;BME280;63883;48.996;20.804;2023-06-24T02:14:01;96653.84;;;17.44;100.00
75290;BME280;63883;48.996;20.804;2023-06-24T02:16:28;96660.97;;;17.56;100.00
75290;BME280;63883;48.996;20.804;2023-06-24T02:18:55;96665.84;;;17.61;100.00
75290;BME280;63883;48.996;20.804;2023-06-24T02:21:23;96658.72;;;17.66;100.00
75290;BME280;63883;48.996;20.804;2023-06-24T02:23:49;96658.91;;;17.63;100.00
75290;BME280;63883;48.996;20.804;2023-06-24T02:26:17;96649.72;;;17.57;100.00
75290;BME280;63883;48.996;20.804;2023-06-24T02:28:45;96642.81;;;17.58;100.00
75290;BME280;63883;48.996;20.804;2023-06-24T02:31:12;96649.03;;;17.53;100.00
75290;BME280;63883;48.996;20.804;2023-06-24T02:33:39;96642.91;;;17.56;100.00
75290;BME280;63883;48.996;20.804;2023-06-24T02:36:05;96650.47;;;17.59;100.00
75290;BME280;63883;48.996;20.804;2023-06-24T02:38:31;96648.91;;;17.72;100.00
75290;BME280;63883;48.996;20.804;2023-06-24T02:40:57;96645.41;;;17.73;100.00
75290;BME280;63883;48.996;20.804;2023-06-24T02:43:23;96640.78;;;17.64;100.00
75290;BME280;63883;48.996;20.804;2023-06-24T02:45:49;96639.63;;;17.52;100.00
75290;BME280;63883;48.996;20.804;2023-06-24T02:48:16;96632.66;;;17.39;100.00
75290;BME280;63883;48.996;20.804;2023-06-24T02:50:44;96633.81;;;17.33;100.00
75290;BME280;63883;48.996;20.804;2023-06-24T02:53:11;96625.56;;;17.27;100.00
75290;BME280;63883;48.996;20.804;2023-06-24T02:55:38;96622.72;;;17.31;100.00
75290;BME280;63883;48.996;20.804;2023-06-24T02:58:05;96613.84;;;17.21;100.00
75290;BME280;63883;48.996;20.804;2023-06-24T03:00:35;96613.16;;;17.17;100.00
75290;BME280;63883;48.996;20.804;2023-06-24T03:03:02;96618.16;;;17.21;100.00
75290;BME280;63883;48.996;20.804;2023-06-24T03:05:29;96609.41;;;17.23;100.00
75290;BME280;63883;48.996;20.804;2023-06-24T03:07:56;96613.59;;;17.26;100.00
75290;BME280;63883;48.996;20.804;2023-06-24T03:10:23;96614.09;;;17.32;100.00
75290;BME280;63883;48.996;20.804;2023-06-24T03:12:49;96612.09;;;17.37;100.00
75290;BME280;63883;48.996;20.804;2023-06-24T03:15:15;96625.59;;;17.42;100.00
75290;BME280;63883;48.996;20.804;2023-06-24T03:17:41;96631.41;;;17.46;100.00
75290;BME280;63883;48.996;20.804;2023-06-24T03:20:07;96624.41;;;17.48;100.00
75290;BME280;63883;48.996;20.804;2023-06-24T03:22:34;96614.53;;;17.56;100.00
75290;BME280;63883;48.996;20.804;2023-06-24T03:24:59;96622.00;;;17.61;100.00
75290;BME280;63883;48.996;20.804;2023-06-24T03:27:25;96625.94;;;17.68;100.00
75290;BME280;63883;48.996;20.804;2023-06-24T03:29:51;96621.06;;;17.63;100.00
75290;BME280;63883;48.996;20.804;2023-06-24T03:32:16;96627.16;;;17.61;100.00
75290;BME280;63883;48.996;20.804;2023-06-24T03:34:42;96622.94;;;17.75;100.00
75290;BME280;63883;48.996;20.804;2023-06-24T03:37:08;96624.44;;;17.79;100.00
75290;BME280;63883;48.996;20.804;2023-06-24T03:39:34;96625.44;;;17.77;100.00
75290;BME280;63883;48.996;20.804;2023-06-24T03:41:59;96632.34;;;17.76;100.00
75290;BME280;63883;48.996;20.804;2023-06-24T03:44:26;96626.94;;;17.65;100.00
75290;BME280;63883;48.996;20.804;2023-06-24T03:46:51;96633.75;;;17.66;100.00
75290;BME280;63883;48.996;20.804;2023-06-24T03:49:17;96642.94;;;17.72;100.00
75290;BME280;63883;48.996;20.804;2023-06-24T03:51:43;96642.25;;;17.68;100.00
75290;BME280;63883;48.996;20.804;2023-06-24T03:54:09;96646.09;;;17.77;100.00
75290;BME280;63883;48.996;20.804;2023-06-24T03:56:35;96651.81;;;17.82;100.00
75290;BME280;63883;48.996;20.804;2023-06-24T03:59:01;96655.81;;;17.87;100.00
75290;BME280;63883;48.996;20.804;2023-06-24T04:01:26;96652.59;;;17.84;100.00
75290;BME280;63883;48.996;20.804;2023-06-24T04:03:55;96657.66;;;17.85;100.00
75290;BME280;63883;48.996;20.804;2023-06-24T04:06:21;96657.47;;;17.88;100.00
75290;BME280;63883;48.996;20.804;2023-06-24T04:08:46;96658.56;;;17.84;100.00
75290;BME280;63883;48.996;20.804;2023-06-24T04:11:14;96658.16;;;17.76;100.00
75290;BME280;63883;48.996;20.804;2023-06-24T04:13:40;96659.06;;;17.75;100.00
75290;BME280;63883;48.996;20.804;2023-06-24T04:16:05;96667.38;;;17.80;100.00
75290;BME280;63883;48.996;20.804;2023-06-24T04:18:31;96656.81;;;17.69;100.00
75290;BME280;63883;48.996;20.804;2023-06-24T04:20:56;96669.53;;;17.72;100.00
75290;BME280;63883;48.996;20.804;2023-06-24T04:23:23;96665.72;;;17.79;100.00
75290;BME280;63883;48.996;20.804;2023-06-24T04:25:49;96670.47;;;17.87;100.00
75290;BME280;63883;48.996;20.804;2023-06-24T04:28:14;96681.72;;;17.86;100.00
75290;BME280;63883;48.996;20.804;2023-06-24T04:30:40;96673.88;;;17.87;100.00
75290;BME280;63883;48.996;20.804;2023-06-24T04:33:06;96670.22;;;17.91;100.00
75290;BME280;63883;48.996;20.804;2023-06-24T04:35:32;96679.03;;;17.87;100.00
75290;BME280;63883;48.996;20.804;2023-06-24T04:37:57;96673.88;;;17.87;100.00
75290;BME280;63883;48.996;20.804;2023-06-24T04:40:23;96684.88;;;17.91;100.00
75290;BME280;63883;48.996;20.804;2023-06-24T04:42:49;96675.06;;;17.98;100.00
75290;BME280;63883;48.996;20.804;2023-06-24T04:45:15;96679.63;;;17.92;100.00
75290;BME280;63883;48.996;20.804;2023-06-24T04:47:41;96696.47;;;18.00;100.00
75290;BME280;63883;48.996;20.804;2023-06-24T04:50:07;96693.59;;;18.20;100.00
75290;BME280;63883;48.996;20.804;2023-06-24T04:52:35;96697.56;;;18.41;100.00
75290;BME280;63883;48.996;20.804;2023-06-24T04:55:01;96694.28;;;18.53;100.00
75290;BME280;63883;48.996;20.804;2023-06-24T04:57:29;96703.88;;;18.51;100.00
75290;BME280;63883;48.996;20.804;2023-06-24T04:59:56;96707.63;;;18.46;100.00
75290;BME280;63883;48.996;20.804;2023-06-24T05:02:22;96707.94;;;18.55;100.00
75290;BME280;63883;48.996;20.804;2023-06-24T05:04:47;96709.78;;;18.69;100.00
75290;BME280;63883;48.996;20.804;2023-06-24T05:07:13;96715.66;;;18.57;100.00
75290;BME280;63883;48.996;20.804;2023-06-24T05:09:39;96725.56;;;18.64;100.00
75290;BME280;63883;48.996;20.804;2023-06-24T05:12:06;96717.97;;;18.61;100.00
75290;BME280;63883;48.996;20.804;2023-06-24T05:14:34;96724.78;;;18.62;100.00
75290;BME280;63883;48.996;20.804;2023-06-24T05:17:01;96722.97;;;18.64;100.00
75290;BME280;63883;48.996;20.804;2023-06-24T05:19:26;96729.81;;;18.65;100.00
75290;BME280;63883;48.996;20.804;2023-06-24T05:21:52;96729.13;;;18.62;100.00
75290;BME280;63883;48.996;20.804;2023-06-24T05:24:18;96734.56;;;18.57;100.00
75290;BME280;63883;48.996;20.804;2023-06-24T05:26:49;96730.13;;;18.59;100.00
75290;BME280;63883;48.996;20.804;2023-06-24T05:29:15;96727.53;;;18.59;100.00
75290;BME280;63883;48.996;20.804;2023-06-24T05:31:41;96735.88;;;18.64;100.00
75290;BME280;63883;48.996;20.804;2023-06-24T05:34:06;96746.31;;;18.63;100.00
75290;BME280;63883;48.996;20.804;2023-06-24T05:36:33;96751.38;;;18.64;99.14
75290;BME280;63883;48.996;20.804;2023-06-24T05:38:58;96755.88;;;18.61;100.00
75290;BME280;63883;48.996;20.804;2023-06-24T05:41:24;96760.28;;;18.59;100.00
75290;BME280;63883;48.996;20.804;2023-06-24T05:44:01;96765.22;;;18.63;100.00
75290;BME280;63883;48.996;20.804;2023-06-24T05:46:27;96761.47;;;18.69;99.87
75290;BME280;63883;48.996;20.804;2023-06-24T05:48:53;96760.22;;;18.60;100.00
75290;BME280;63883;48.996;20.804;2023-06-24T05:51:19;96774.06;;;18.59;100.00
75290;BME280;63883;48.996;20.804;2023-06-24T05:53:44;96775.13;;;18.55;100.00
75290;BME280;63883;48.996;20.804;2023-06-24T05:56:10;96777.38;;;18.61;100.00
75290;BME280;63883;48.996;20.804;2023-06-24T05:58:35;96784.97;;;18.64;100.00
75290;BME280;63883;48.996;20.804;2023-06-24T06:01:01;96782.22;;;18.67;98.56
75290;BME280;63883;48.996;20.804;2023-06-24T06:03:27;96793.56;;;18.65;99.98
75290;BME280;63883;48.996;20.804;2023-06-24T06:05:52;96784.13;;;18.80;99.76
75290;BME280;63883;48.996;20.804;2023-06-24T06:08:18;96785.25;;;18.90;99.79
75290;BME280;63883;48.996;20.804;2023-06-24T06:10:44;96794.25;;;18.98;99.64
75290;BME280;63883;48.996;20.804;2023-06-24T06:13:09;96794.00;;;19.17;98.95
75290;BME280;63883;48.996;20.804;2023-06-24T06:15:35;96801.06;;;19.29;97.89
75290;BME280;63883;48.996;20.804;2023-06-24T06:18:00;96800.94;;;19.31;96.59
75290;BME280;63883;48.996;20.804;2023-06-24T06:20:26;96798.41;;;19.45;96.25
75290;BME280;63883;48.996;20.804;2023-06-24T06:22:52;96805.66;;;19.54;96.19
75290;BME280;63883;48.996;20.804;2023-06-24T06:25:18;96807.41;;;19.68;95.57
75290;BME280;63883;48.996;20.804;2023-06-24T06:27:43;96813.25;;;19.85;94.18
75290;BME280;63883;48.996;20.804;2023-06-24T06:30:10;96800.03;;;19.62;96.05
75290;BME280;63883;48.996;20.804;2023-06-24T06:32:35;96816.00;;;19.68;95.09
75290;BME280;63883;48.996;20.804;2023-06-24T06:35:01;96828.69;;;19.73;94.71
75290;BME280;63883;48.996;20.804;2023-06-24T06:37:27;96826.94;;;19.73;94.75
75290;BME280;63883;48.996;20.804;2023-06-24T06:39:53;96829.41;;;19.61;95.29
75290;BME280;63883;48.996;20.804;2023-06-24T06:42:18;96828.50;;;19.76;95.19
75290;BME280;63883;48.996;20.804;2023-06-24T06:44:44;96824.91;;;19.93;95.02
75290;BME280;63883;48.996;20.804;2023-06-24T06:47:10;96831.28;;;20.15;91.94
75290;BME280;63883;48.996;20.804;2023-06-24T06:49:36;96822.56;;;20.31;91.81
75290;BME280;63883;48.996;20.804;2023-06-24T06:52:02;96831.31;;;20.56;91.05
75290;BME280;63883;48.996;20.804;2023-06-24T06:54:28;96823.84;;;20.79;89.70
75290;BME280;63883;48.996;20.804;2023-06-24T06:56:53;96829.34;;;20.74;89.03
75290;BME280;63883;48.996;20.804;2023-06-24T06:59:19;96829.13;;;20.77;88.22
75290;BME280;63883;48.996;20.804;2023-06-24T07:01:44;96833.00;;;20.84;86.26
75290;BME280;63883;48.996;20.804;2023-06-24T07:04:10;96832.50;;;21.19;85.34
75290;BME280;63883;48.996;20.804;2023-06-24T07:06:36;96823.06;;;21.18;85.28
75290;BME280;63883;48.996;20.804;2023-06-24T07:09:02;96824.22;;;21.26;85.13
75290;BME280;63883;48.996;20.804;2023-06-24T07:11:27;96822.03;;;21.33;83.47
75290;BME280;63883;48.996;20.804;2023-06-24T07:13:53;96825.59;;;21.32;83.15
75290;BME280;63883;48.996;20.804;2023-06-24T07:16:19;96823.94;;;21.31;83.30
75290;BME280;63883;48.996;20.804;2023-06-24T07:18:45;96827.16;;;21.47;82.35
75290;BME280;63883;48.996;20.804;2023-06-24T07:21:11;96820.41;;;21.45;81.89
75290;BME280;63883;48.996;20.804;2023-06-24T07:23:37;96820.59;;;21.54;82.04
75290;BME280;63883;48.996;20.804;2023-06-24T07:26:02;96819.81;;;21.54;82.81
75290;BME280;63883;48.996;20.804;2023-06-24T07:28:28;96822.91;;;21.46;82.07
75290;BME280;63883;48.996;20.804;2023-06-24T07:30:53;96820.41;;;21.45;81.25
75290;BME280;63883;48.996;20.804;2023-06-24T07:33:19;96813.78;;;21.53;81.83
75290;BME280;63883;48.996;20.804;2023-06-24T07:35:45;96817.41;;;21.63;82.81
75290;BME280;63883;48.996;20.804;2023-06-24T07:38:10;96817.22;;;21.66;80.20
75290;BME280;63883;48.996;20.804;2023-06-24T07:40:36;96811.69;;;21.71;81.66
75290;BME280;63883;48.996;20.804;2023-06-24T07:43:02;96812.81;;;21.54;81.83
75290;BME280;63883;48.996;20.804;2023-06-24T07:45:27;96807.94;;;21.62;83.02
75290;BME280;63883;48.996;20.804;2023-06-24T07:47:53;96812.09;;;21.77;81.98
75290;BME280;63883;48.996;20.804;2023-06-24T07:50:19;96818.34;;;22.13;80.66
75290;BME280;63883;48.996;20.804;2023-06-24T07:52:45;96828.44;;;22.41;78.36
75290;BME280;63883;48.996;20.804;2023-06-24T07:55:10;96827.41;;;22.44;76.56
75290;BME280;63883;48.996;20.804;2023-06-24T07:57:36;96827.41;;;22.44;75.97
75290;BME280;63883;48.996;20.804;2023-06-24T08:00:02;96836.25;;;22.41;77.66
75290;BME280;63883;48.996;20.804;2023-06-24T08:02:28;96834.50;;;22.42;74.15
75290;BME280;63883;48.996;20.804;2023-06-24T08:04:54;96839.47;;;22.45;74.35
75290;BME280;63883;48.996;20.804;2023-06-24T08:07:20;96840.91;;;22.62;74.87
75290;BME280;63883;48.996;20.804;2023-06-24T08:09:45;96836.94;;;22.56;73.53
75290;BME280;63883;48.996;20.804;2023-06-24T08:12:11;96844.19;;;22.40;76.87
75290;BME280;63883;48.996;20.804;2023-06-24T08:14:36;96835.88;;;22.22;78.13
75290;BME280;63883;48.996;20.804;2023-06-24T08:17:02;96839.72;;;22.29;78.86
75290;BME280;63883;48.996;20.804;2023-06-24T08:19:28;96844.28;;;22.38;76.63
75290;BME280;63883;48.996;20.804;2023-06-24T08:21:54;96842.19;;;22.43;76.87
75290;BME280;63883;48.996;20.804;2023-06-24T08:24:20;96836.41;;;22.64;75.00
75290;BME280;63883;48.996;20.804;2023-06-24T08:26:45;96850.19;;;22.53;75.29
75290;BME280;63883;48.996;20.804;2023-06-24T08:29:11;96850.22;;;22.64;74.04
75290;BME280;63883;48.996;20.804;2023-06-24T08:31:37;96843.34;;;23.00;72.77
75290;BME280;63883;48.996;20.804;2023-06-24T08:34:02;96838.22;;;23.11;73.23
75290;BME280;63883;48.996;20.804;2023-06-24T08:36:28;96846.31;;;22.95;72.65
75290;BME280;63883;48.996;20.804;2023-06-24T08:38:57;96846.34;;;23.06;72.26
75290;BME280;63883;48.996;20.804;2023-06-24T08:41:23;96849.50;;;23.22;72.46
75290;BME280;63883;48.996;20.804;2023-06-24T08:43:50;96852.28;;;23.08;75.34
75290;BME280;63883;48.996;20.804;2023-06-24T08:46:17;96856.47;;;23.22;73.94
75290;BME280;63883;48.996;20.804;2023-06-24T08:48:45;96859.91;;;23.22;72.75
75290;BME280;63883;48.996;20.804;2023-06-24T08:51:13;96850.13;;;23.26;71.88
75290;BME280;63883;48.996;20.804;2023-06-24T08:53:42;96860.25;;;23.18;70.78
75290;BME280;63883;48.996;20.804;2023-06-24T08:56:09;96853.72;;;23.12;71.88
75290;BME280;63883;48.996;20.804;2023-06-24T08:58:35;96850.91;;;23.50;72.42
75290;BME280;63883;48.996;20.804;2023-06-24T09:01:02;96862.69;;;23.78;70.81
75290;BME280;63883;48.996;20.804;2023-06-24T09:03:28;96854.44;;;24.06;70.07
75290;BME280;63883;48.996;20.804;2023-06-24T09:05:54;96863.22;;;24.05;67.64
75290;BME280;63883;48.996;20.804;2023-06-24T09:08:21;96859.00;;;24.27;69.67
75290;BME280;63883;48.996;20.804;2023-06-24T09:10:53;96856.81;;;24.43;67.63
75290;BME280;63883;48.996;20.804;2023-06-24T09:13:33;96859.09;;;24.25;66.13
75290;BME280;63883;48.996;20.804;2023-06-24T09:15:59;96847.94;;;24.45;65.56
75290;BME280;63883;48.996;20.804;2023-06-24T09:18:31;96854.94;;;24.56;68.55
75290;BME280;63883;48.996;20.804;2023-06-24T09:20:57;96858.34;;;24.57;67.63
75290;BME280;63883;48.996;20.804;2023-06-24T09:23:25;96855.06;;;24.55;67.18
75290;BME280;63883;48.996;20.804;2023-06-24T09:25:56;96858.84;;;24.62;67.30
75290;BME280;63883;48.996;20.804;2023-06-24T09:28:26;96859.88;;;24.14;67.05
75290;BME280;63883;48.996;20.804;2023-06-24T09:31:08;96859.31;;;24.22;67.80
75290;BME280;63883;48.996;20.804;2023-06-24T09:33:34;96859.94;;;24.48;68.55
75290;BME280;63883;48.996;20.804;2023-06-24T09:36:03;96863.63;;;24.34;67.28
75290;BME280;63883;48.996;20.804;2023-06-24T09:38:36;96855.19;;;24.20;66.78
75290;BME280;63883;48.996;20.804;2023-06-24T09:41:03;96845.69;;;24.63;66.84
75290;BME280;63883;48.996;20.804;2023-06-24T09:43:33;96849.63;;;24.89;66.46
75290;BME280;63883;48.996;20.804;2023-06-24T09:46:05;96860.78;;;25.03;64.07
75290;BME280;63883;48.996;20.804;2023-06-24T09:48:32;96856.81;;;25.19;65.12
75290;BME280;63883;48.996;20.804;2023-06-24T09:51:04;96857.66;;;25.09;64.12
75290;BME280;63883;48.996;20.804;2023-06-24T09:53:32;96855.34;;;25.26;64.45
75290;BME280;63883;48.996;20.804;2023-06-24T09:56:07;96847.19;;;25.20;64.85
75290;BME280;63883;48.996;20.804;2023-06-24T09:58:35;96863.50;;;25.33;64.48
75290;BME280;63883;48.996;20.804;2023-06-24T10:01:03;96853.59;;;25.48;63.79
75290;BME280;63883;48.996;20.804;2023-06-24T10:03:32;96853.00;;;26.07;61.55
75290;BME280;63883;48.996;20.804;2023-06-24T10:06:02;96855.47;;;26.08;60.50
75290;BME280;63883;48.996;20.804;2023-06-24T10:08:31;96858.59;;;25.72;59.88
75290;BME280;63883;48.996;20.804;2023-06-24T10:10:58;96860.50;;;26.21;59.10
75290;BME280;63883;48.996;20.804;2023-06-24T10:13:24;96853.25;;;26.64;57.99
75290;BME280;63883;48.996;20.804;2023-06-24T10:15:51;96848.38;;;27.77;55.28
75290;BME280;63883;48.996;20.804;2023-06-24T10:18:34;96855.00;;;27.04;55.92
75290;BME280;63883;48.996;20.804;2023-06-24T10:21:01;96860.38;;;27.41;55.73
75290;BME280;63883;48.996;20.804;2023-06-24T10:26:27;96863.44;;;26.58;56.49
75290;BME280;63883;48.996;20.804;2023-06-24T10:34:27;96859.59;;;24.96;61.27
75290;BME280;63883;48.996;20.804;2023-06-24T10:42:27;96855.38;;;23.94;64.11
75290;BME280;63883;48.996;20.804;2023-06-24T10:45:01;96865.66;;;23.85;65.84
75290;BME280;63883;48.996;20.804;2023-06-24T10:47:28;96867.63;;;23.35;67.10
75290;BME280;63883;48.996;20.804;2023-06-24T10:49:54;96868.09;;;23.29;67.43
75290;BME280;63883;48.996;20.804;2023-06-24T10:52:22;96872.72;;;23.25;66.70
75290;BME280;63883;48.996;20.804;2023-06-24T10:54:49;96863.25;;;23.35;67.72
75290;BME280;63883;48.996;20.804;2023-06-24T10:57:16;96865.31;;;23.43;67.09
75290;BME280;63883;48.996;20.804;2023-06-24T10:59:47;96867.41;;;23.62;66.47
75290;BME280;63883;48.996;20.804;2023-06-24T11:02:14;96872.69;;;23.84;65.60
75290;BME280;63883;48.996;20.804;2023-06-24T11:04:48;96880.50;;;24.06;65.03
75290;BME280;63883;48.996;20.804;2023-06-24T11:07:17;96873.78;;;24.48;63.47
75290;BME280;63883;48.996;20.804;2023-06-24T11:09:51;96877.94;;;24.40;63.07
75290;BME280;63883;48.996;20.804;2023-06-24T11:12:18;96873.06;;;24.35;63.39
75290;BME280;63883;48.996;20.804;2023-06-24T11:14:44;96874.00;;;24.12;64.10
75290;BME280;63883;48.996;20.804;2023-06-24T11:17:10;96884.91;;;24.06;64.70
75290;BME280;63883;48.996;20.804;2023-06-24T11:19:36;96879.25;;;23.66;65.12
75290;BME280;63883;48.996;20.804;2023-06-24T11:22:06;96870.50;;;23.43;66.99
75290;BME280;63883;48.996;20.804;2023-06-24T11:24:32;96871.22;;;23.34;66.26
75290;BME280;63883;48.996;20.804;2023-06-24T11:26:58;96881.72;;;23.32;66.23
75290;BME280;63883;48.996;20.804;2023-06-24T11:29:24;96873.09;;;23.32;66.55
75290;BME280;63883;48.996;20.804;2023-06-24T11:31:50;96864.91;;;23.25;66.51
75290;BME280;63883;48.996;20.804;2023-06-24T11:34:16;96862.22;;;23.38;66.34
75290;BME280;63883;48.996;20.804;2023-06-24T11:36:42;96859.00;;;23.58;65.25
75290;BME280;63883;48.996;20.804;2023-06-24T11:39:08;96857.25;;;23.70;63.78
75290;BME280;63883;48.996;20.804;2023-06-24T11:41:34;96845.09;;;24.04;63.54
75290;BME280;63883;48.996;20.804;2023-06-24T11:43:59;96831.09;;;24.49;62.31
75290;BME280;63883;48.996;20.804;2023-06-24T11:46:30;96833.06;;;26.95;56.69
75290;BME280;63883;48.996;20.804;2023-06-24T11:49:08;96833.00;;;28.65;50.76
75290;BME280;63883;48.996;20.804;2023-06-24T11:51:35;96847.25;;;28.26;49.88
75290;BME280;63883;48.996;20.804;2023-06-24T11:54:02;96847.44;;;28.97;48.17
75290;BME280;63883;48.996;20.804;2023-06-24T11:56:36;96838.34;;;30.06;45.87
75290;BME280;63883;48.996;20.804;2023-06-24T11:59:26;96836.56;;;30.98;43.44
75290;BME280;63883;48.996;20.804;2023-06-24T12:01:53;96844.25;;;30.00;45.49
75290;BME280;63883;48.996;20.804;2023-06-24T12:04:19;96848.00;;;28.18;49.83
75290;BME280;63883;48.996;20.804;2023-06-24T12:06:46;96855.72;;;25.75;55.54
75290;BME280;63883;48.996;20.804;2023-06-24T12:09:11;96849.91;;;25.92;57.04
75290;BME280;63883;48.996;20.804;2023-06-24T12:11:38;96851.91;;;26.09;56.47
75290;BME280;63883;48.996;20.804;2023-06-24T12:14:05;96850.94;;;26.31;53.84
75290;BME280;63883;48.996;20.804;2023-06-24T12:16:31;96847.00;;;25.95;55.50
75290;BME280;63883;48.996;20.804;2023-06-24T12:18:57;96857.13;;;26.09;55.98
75290;BME280;63883;48.996;20.804;2023-06-24T12:21:22;96849.63;;;25.53;57.66
75290;BME280;63883;48.996;20.804;2023-06-24T12:23:48;96850.16;;;25.47;57.52
75290;BME280;63883;48.996;20.804;2023-06-24T12:26:14;96854.44;;;25.90;56.71
75290;BME280;63883;48.996;20.804;2023-06-24T12:28:40;96840.66;;;27.56;52.69
75290;BME280;63883;48.996;20.804;2023-06-24T12:31:06;96846.13;;;26.86;53.08
75290;BME280;63883;48.996;20.804;2023-06-24T12:33:31;96841.25;;;27.96;50.89
75290;BME280;63883;48.996;20.804;2023-06-24T12:35:58;96840.88;;;27.91;50.85
75290;BME280;63883;48.996;20.804;2023-06-24T12:38:24;96844.53;;;27.62;50.85
75290;BME280;63883;48.996;20.804;2023-06-24T12:40:50;96840.41;;;28.06;50.66
75290;BME280;63883;48.996;20.804;2023-06-24T12:43:15;96838.06;;;28.03;50.03
75290;BME280;63883;48.996;20.804;2023-06-24T12:45:41;96844.78;;;27.10;52.46
75290;BME280;63883;48.996;20.804;2023-06-24T12:48:10;96850.09;;;26.00;55.52
75290;BME280;63883;48.996;20.804;2023-06-24T12:50:37;96837.09;;;25.15;58.45
75290;BME280;63883;48.996;20.804;2023-06-24T12:53:02;96847.78;;;24.92;58.29
75290;BME280;63883;48.996;20.804;2023-06-24T12:55:29;96846.44;;;24.97;58.80
75290;BME280;63883;48.996;20.804;2023-06-24T12:57:55;96841.81;;;25.21;58.86
75290;BME280;63883;48.996;20.804;2023-06-24T13:00:21;96834.41;;;25.79;57.70
75290;BME280;63883;48.996;20.804;2023-06-24T13:02:47;96851.91;;;26.09;55.74
75290;BME280;63883;48.996;20.804;2023-06-24T13:05:14;96846.66;;;26.09;57.05
75290;BME280;63883;48.996;20.804;2023-06-24T13:07:39;96856.47;;;26.17;55.48
75290;BME280;63883;48.996;20.804;2023-06-24T13:10:05;96856.53;;;26.57;55.53
75290;BME280;63883;48.996;20.804;2023-06-24T13:12:32;96864.00;;;25.80;56.31
75290;BME280;63883;48.996;20.804;2023-06-24T13:14:58;96870.34;;;25.45;57.37